createdAt,value
2022-08-22T00:00:34.963Z,0.50
2022-08-22T00:01:38.659Z,0.50
2022-08-22T00:02:53.997Z,5.00
2022-08-22T00:02:55.204Z,1.50
2022-08-22T00:02:57.677Z,0.50
2022-08-22T00:02:59.184Z,1.25
2022-08-22T00:03:01.116Z,5.00
2022-08-22T00:03:04.031Z,2.00
2022-08-22T00:03:09.334Z,0.25
2022-08-22T00:03:12.195Z,0.75
2022-08-22T00:03:15.360Z,0.00
2022-08-22T00:03:46.462Z,0.00
2022-08-22T00:04:49.831Z,0.00
2022-08-22T00:05:53.330Z,0.00
2022-08-22T00:06:56.810Z,0.50
2022-08-22T00:08:00.497Z,0.00
2022-08-22T00:09:03.559Z,0.00
2022-08-22T00:10:06.835Z,0.50
2022-08-22T00:11:09.707Z,0.50
2022-08-22T00:12:12.941Z,0.40
2022-08-22T00:13:16.320Z,0.00
2022-08-22T00:14:19.514Z,0.00
2022-08-22T00:15:42.333Z,0.00
2022-08-22T00:16:27.307Z,0.25
2022-08-22T00:17:30.711Z,0.00
2022-08-22T00:18:33.860Z,0.50
2022-08-22T00:19:37.166Z,1.00
2022-08-22T00:20:40.534Z,0.50
2022-08-22T00:21:43.624Z,0.00
2022-08-22T00:22:47.011Z,0.00
2022-08-22T00:23:50.498Z,0.50
2022-08-22T00:24:53.776Z,0.25
2022-08-22T00:25:57.019Z,0.50
2022-08-22T00:27:00.338Z,0.25
2022-08-22T00:28:03.628Z,0.00
2022-08-22T00:29:06.907Z,0.00
2022-08-22T00:30:10.409Z,0.00
2022-08-22T00:31:13.564Z,0.50
2022-08-22T00:32:16.757Z,0.50
2022-08-22T00:33:19.977Z,0.00
2022-08-22T00:34:23.140Z,0.00
2022-08-22T00:35:26.410Z,0.00
2022-08-22T00:36:29.899Z,0.00
2022-08-22T00:37:33.397Z,0.00
2022-08-22T00:38:36.738Z,0.00
2022-08-22T00:39:39.986Z,0.00
2022-08-22T00:40:43.468Z,0.00
2022-08-22T00:41:46.834Z,0.00
2022-08-22T00:42:50.421Z,0.00
2022-08-22T00:43:54.114Z,0.00
2022-08-22T00:44:57.397Z,0.00
2022-08-22T00:46:00.993Z,0.00
2022-08-22T00:47:04.068Z,0.00
2022-08-22T00:48:07.569Z,0.00
2022-08-22T00:49:10.742Z,0.00
2022-08-22T00:50:13.935Z,0.00
2022-08-22T00:51:17.204Z,0.00
2022-08-22T00:52:20.492Z,0.25
2022-08-22T00:53:23.674Z,0.00
2022-08-22T00:54:26.864Z,0.00
2022-08-22T00:55:35.116Z,0.00
2022-08-22T00:56:34.116Z,0.00
2022-08-22T00:57:37.336Z,0.00
2022-08-22T00:58:40.707Z,0.50
2022-08-22T00:59:47.286Z,0.50
2022-08-22T01:00:50.325Z,0.00
2022-08-22T01:01:53.659Z,0.00
2022-08-22T01:02:57.506Z,0.00
2022-08-22T01:04:00.721Z,0.00
2022-08-22T01:05:03.686Z,1.00
2022-08-22T01:06:06.671Z,0.50
2022-08-22T01:07:09.514Z,0.00
2022-08-22T01:08:12.619Z,0.00
2022-08-22T01:09:15.818Z,0.00
2022-08-22T01:10:19.093Z,0.00
2022-08-22T01:11:22.283Z,0.00
2022-08-22T01:12:25.753Z,0.00
2022-08-22T01:13:29.451Z,1.00
2022-08-22T01:14:34.348Z,1.50
2022-08-22T01:15:37.349Z,2.00
2022-08-22T01:16:40.541Z,3.75
2022-08-22T01:17:44.015Z,2.80
2022-08-22T01:18:47.513Z,1.25
2022-08-22T01:19:50.998Z,3.00
2022-08-22T01:20:54.397Z,3.75
2022-08-22T01:21:57.984Z,3.00
2022-08-22T01:23:01.685Z,2.50
2022-08-22T01:24:04.980Z,2.00
2022-08-22T01:25:08.244Z,2.50
2022-08-22T01:26:12.048Z,2.00
2022-08-22T01:27:15.435Z,2.25
2022-08-22T01:28:19.737Z,1.00
2022-08-22T01:29:28.361Z,1.50
2022-08-22T01:30:28.350Z,1.50
2022-08-22T01:31:31.736Z,0.50
2022-08-22T01:32:35.229Z,0.50
2022-08-22T01:33:38.724Z,0.00
2022-08-22T01:34:42.120Z,0.00
2022-08-22T01:35:45.389Z,0.50
2022-08-22T01:36:48.883Z,0.25
2022-08-22T01:37:52.554Z,0.50
2022-08-22T01:38:55.960Z,1.00
2022-08-22T01:39:59.895Z,1.00
2022-08-22T01:41:03.313Z,0.00
2022-08-22T01:42:07.665Z,0.00
2022-08-22T01:43:19.350Z,0.00
2022-08-22T01:44:22.843Z,1.50
2022-08-22T01:45:26.211Z,0.00
2022-08-22T01:46:30.013Z,0.50
2022-08-22T01:47:36.773Z,0.50
2022-08-22T01:48:38.352Z,1.00
2022-08-22T01:49:41.697Z,1.50
2022-08-22T01:50:45.506Z,1.00
2022-08-22T01:51:48.888Z,0.50
2022-08-22T01:52:52.987Z,1.00
2022-08-22T01:53:56.484Z,0.50
2022-08-22T01:55:00.075Z,0.50
2022-08-22T01:56:03.677Z,1.00
2022-08-22T01:57:06.746Z,0.25
2022-08-22T01:58:10.231Z,0.50
2022-08-22T01:59:13.269Z,0.00
2022-08-22T02:00:16.500Z,0.00
2022-08-22T02:01:19.719Z,0.50
2022-08-22T02:02:22.963Z,1.00
2022-08-22T02:03:26.558Z,1.00
2022-08-22T02:04:30.056Z,0.75
2022-08-22T02:05:33.228Z,1.25
2022-08-22T02:06:36.361Z,0.50
2022-08-22T02:07:39.587Z,0.50
2022-08-22T02:08:42.757Z,1.25
2022-08-22T02:09:45.798Z,1.50
2022-08-22T02:10:49.640Z,1.25
2022-08-22T02:11:52.916Z,1.00
2022-08-22T02:12:56.518Z,1.50
2022-08-22T02:13:59.705Z,1.00
2022-08-22T02:15:02.886Z,0.25
2022-08-22T02:16:06.058Z,0.50
2022-08-22T02:17:09.239Z,0.50
2022-08-22T02:18:12.426Z,0.25
2022-08-22T02:19:15.811Z,1.00
2022-08-22T02:20:20.432Z,1.00
2022-08-22T02:21:23.606Z,0.50
2022-08-22T02:22:26.791Z,0.00
2022-08-22T02:23:29.923Z,1.00
2022-08-22T02:24:33.257Z,1.00
2022-08-22T02:25:36.336Z,1.50
2022-08-22T02:26:39.721Z,2.00
2022-08-22T02:27:43.316Z,1.00
2022-08-22T02:28:57.077Z,1.00
2022-08-22T02:29:50.913Z,0.50
2022-08-22T02:30:54.398Z,0.50
2022-08-22T02:31:57.776Z,0.00
2022-08-22T02:33:00.965Z,0.25
2022-08-22T02:34:04.758Z,0.50
2022-08-22T02:35:08.046Z,0.50
2022-08-22T02:36:11.327Z,0.50
2022-08-22T02:37:14.506Z,0.50
2022-08-22T02:38:17.806Z,0.00
2022-08-22T02:39:21.090Z,0.00
2022-08-22T02:40:24.502Z,0.25
2022-08-22T02:41:27.957Z,0.50
2022-08-22T02:42:32.168Z,0.50
2022-08-22T02:43:35.360Z,0.00
2022-08-22T02:44:38.825Z,0.00
2022-08-22T02:45:42.034Z,0.50
2022-08-22T02:46:45.398Z,0.50
2022-08-22T02:47:48.695Z,1.00
2022-08-22T02:48:51.984Z,0.50
2022-08-22T02:49:55.365Z,0.50
2022-08-22T02:50:59.460Z,0.00
2022-08-22T02:52:02.747Z,0.00
2022-08-22T02:53:06.434Z,0.50
2022-08-22T02:54:18.165Z,0.00
2022-08-22T02:55:21.828Z,0.00
2022-08-22T02:56:26.221Z,0.00
2022-08-22T02:57:29.731Z,0.00
2022-08-22T02:58:33.211Z,0.00
2022-08-22T02:59:36.796Z,0.00
2022-08-22T03:00:40.012Z,0.00
2022-08-22T03:01:43.599Z,0.00
2022-08-22T03:02:46.959Z,0.00
2022-08-22T03:03:50.348Z,0.00
2022-08-22T03:04:53.619Z,0.50
2022-08-22T03:06:00.880Z,0.50
2022-08-22T03:07:01.550Z,0.00
2022-08-22T03:08:05.135Z,0.25
2022-08-22T03:09:08.455Z,1.50
2022-08-22T03:10:11.696Z,1.75
2022-08-22T03:11:15.476Z,1.00
2022-08-22T03:12:18.870Z,0.00
2022-08-22T03:13:22.151Z,2.00
2022-08-22T03:14:26.589Z,2.00
2022-08-22T03:15:30.372Z,1.00
2022-08-22T03:16:33.875Z,1.00
2022-08-22T03:17:37.452Z,0.25
2022-08-22T03:18:40.930Z,0.00
2022-08-22T03:19:44.614Z,0.00
2022-08-22T03:20:48.010Z,0.00
2022-08-22T03:21:51.699Z,0.00
2022-08-22T03:22:55.501Z,0.00
2022-08-22T03:24:00.023Z,0.50
2022-08-22T03:25:03.306Z,0.50
2022-08-22T03:26:07.417Z,0.00
2022-08-22T03:27:11.188Z,0.50
2022-08-22T03:28:14.591Z,0.00
2022-08-22T03:29:17.978Z,1.00
2022-08-22T03:30:21.189Z,0.75
2022-08-22T03:31:24.292Z,1.00
2022-08-22T03:32:27.424Z,0.40
2022-08-22T03:33:30.917Z,0.00
2022-08-22T03:34:34.090Z,0.00
2022-08-22T03:35:37.665Z,0.00
2022-08-22T03:36:40.982Z,0.00
2022-08-22T03:37:44.646Z,0.00
2022-08-22T03:38:48.142Z,0.00
2022-08-22T03:39:51.494Z,0.00
2022-08-22T03:40:55.118Z,0.00
2022-08-22T03:41:58.936Z,0.50
2022-08-22T03:43:02.403Z,0.50
2022-08-22T03:44:05.999Z,0.00
2022-08-22T03:45:09.386Z,0.00
2022-08-22T03:46:12.767Z,0.00
2022-08-22T03:47:15.850Z,0.00
2022-08-22T03:48:19.443Z,0.00
2022-08-22T03:49:22.942Z,0.00
2022-08-22T03:50:26.215Z,0.00
2022-08-22T03:51:30.844Z,0.00
2022-08-22T03:52:34.222Z,0.50
2022-08-22T03:53:38.627Z,0.50
2022-08-22T03:54:41.905Z,0.00
2022-08-22T03:55:45.241Z,0.00
2022-08-22T03:56:48.713Z,0.00
2022-08-22T03:57:53.029Z,0.00
2022-08-22T03:58:56.180Z,0.00
2022-08-22T03:59:59.359Z,0.50
2022-08-22T04:01:03.725Z,0.50
2022-08-22T04:02:42.170Z,0.00
2022-08-22T04:03:11.416Z,0.00
2022-08-22T04:04:14.329Z,0.25
2022-08-22T04:05:18.121Z,0.50
2022-08-22T04:06:22.946Z,0.50
2022-08-22T04:07:31.483Z,0.50
2022-08-22T04:08:31.667Z,0.00
2022-08-22T04:09:34.846Z,0.50
2022-08-22T04:10:39.467Z,0.00
2022-08-22T04:11:42.957Z,0.00
2022-08-22T04:12:46.644Z,0.00
2022-08-22T04:13:49.825Z,0.00
2022-08-22T04:14:52.910Z,0.00
2022-08-22T04:15:56.000Z,0.00
2022-08-22T04:16:59.183Z,0.00
2022-08-22T04:18:02.360Z,0.00
2022-08-22T04:19:05.438Z,0.00
2022-08-22T04:20:09.641Z,0.00
2022-08-22T04:21:12.620Z,0.00
2022-08-22T04:22:15.900Z,0.00
2022-08-22T04:23:19.191Z,0.00
2022-08-22T04:24:22.377Z,0.00
2022-08-22T04:25:25.663Z,0.00
2022-08-22T04:26:28.937Z,0.50
2022-08-22T04:27:32.312Z,0.50
2022-08-22T04:28:35.519Z,0.00
2022-08-22T04:29:39.098Z,0.00
2022-08-22T04:30:42.385Z,0.00
2022-08-22T04:31:45.480Z,0.25
2022-08-22T04:32:49.165Z,0.50
2022-08-22T04:33:52.451Z,0.00
2022-08-22T04:34:55.746Z,0.00
2022-08-22T04:35:58.803Z,0.00
2022-08-22T04:37:02.289Z,0.00
2022-08-22T04:38:05.483Z,0.00
2022-08-22T04:39:08.857Z,0.00
2022-08-22T04:40:12.464Z,0.00
2022-08-22T04:41:15.484Z,0.50
2022-08-22T04:42:32.175Z,0.50
2022-08-22T04:43:22.940Z,0.00
2022-08-22T04:44:26.406Z,0.00
2022-08-22T04:45:29.792Z,0.00
2022-08-22T04:46:36.799Z,0.00
2022-08-22T04:47:37.999Z,0.00
2022-08-22T04:48:41.320Z,0.00
2022-08-22T04:49:44.662Z,0.00
2022-08-22T04:50:47.760Z,0.00
2022-08-22T04:51:51.136Z,0.00
2022-08-22T04:52:54.331Z,0.25
2022-08-22T04:53:57.498Z,0.00
2022-08-22T04:55:00.891Z,0.00
2022-08-22T04:56:07.245Z,0.00
2022-08-22T04:57:08.378Z,0.00
2022-08-22T04:58:11.551Z,0.00
2022-08-22T04:59:14.538Z,0.00
2022-08-22T05:00:18.227Z,0.00
2022-08-22T05:01:21.536Z,0.25
2022-08-22T05:02:24.792Z,0.00
2022-08-22T05:03:27.995Z,0.00
2022-08-22T05:04:31.166Z,0.00
2022-08-22T05:05:34.347Z,0.00
2022-08-22T05:06:37.536Z,0.00
2022-08-22T05:07:41.230Z,0.00
2022-08-22T05:08:44.414Z,0.50
2022-08-22T05:09:47.588Z,0.50
2022-08-22T05:10:50.964Z,0.00
2022-08-22T05:11:54.471Z,0.00
2022-08-22T05:12:57.764Z,0.00
2022-08-22T05:14:00.826Z,0.50
2022-08-22T05:15:04.207Z,0.00
2022-08-22T05:16:08.617Z,0.00
2022-08-22T05:17:11.914Z,0.00
2022-08-22T05:18:16.414Z,0.00
2022-08-22T05:19:27.025Z,0.00
2022-08-22T05:20:24.134Z,0.00
2022-08-22T05:21:27.607Z,0.50
2022-08-22T05:22:30.815Z,0.00
2022-08-22T05:23:33.967Z,0.00
2022-08-22T05:24:37.250Z,0.00
2022-08-22T05:25:43.510Z,0.00
2022-08-22T05:26:46.785Z,0.00
2022-08-22T05:27:49.973Z,0.25
2022-08-22T05:28:54.377Z,0.00
2022-08-22T05:29:57.784Z,0.00
2022-08-22T05:31:01.269Z,0.00
2022-08-22T05:32:04.549Z,0.00
2022-08-22T05:33:08.026Z,0.00
2022-08-22T05:34:11.616Z,0.00
2022-08-22T05:35:14.905Z,0.00
2022-08-22T05:36:18.408Z,0.00
2022-08-22T05:37:21.679Z,0.00
2022-08-22T05:38:24.960Z,0.00
2022-08-22T05:39:28.449Z,0.00
2022-08-22T05:40:31.734Z,0.00
2022-08-22T05:41:35.864Z,0.00
2022-08-22T05:42:39.630Z,0.00
2022-08-22T05:43:43.036Z,0.00
2022-08-22T05:44:46.539Z,0.00
2022-08-22T05:45:49.800Z,0.00
2022-08-22T05:46:53.302Z,0.00
2022-08-22T05:47:56.574Z,0.00
2022-08-22T05:49:00.118Z,0.00
2022-08-22T05:50:03.447Z,0.00
2022-08-22T05:51:06.932Z,0.00
2022-08-22T05:52:10.432Z,0.00
2022-08-22T05:53:14.313Z,0.00
2022-08-22T05:54:17.933Z,0.50
2022-08-22T05:55:21.205Z,0.50
2022-08-22T05:56:25.595Z,0.00
2022-08-22T05:57:28.889Z,0.00
2022-08-22T05:58:32.477Z,0.00
2022-08-22T05:59:36.377Z,0.00
2022-08-22T06:00:39.667Z,0.00
2022-08-22T06:01:42.881Z,0.00
2022-08-22T06:02:46.129Z,0.00
2022-08-22T06:03:49.318Z,0.00
2022-08-22T06:04:52.496Z,0.25
2022-08-22T06:05:55.896Z,0.50
2022-08-22T06:06:59.163Z,0.00
2022-08-22T06:08:02.871Z,0.00
2022-08-22T06:09:06.252Z,0.00
2022-08-22T06:10:09.441Z,0.00
2022-08-22T06:11:12.509Z,0.00
2022-08-22T06:12:20.177Z,0.00
2022-08-22T06:13:20.385Z,0.00
2022-08-22T06:14:24.766Z,0.25
2022-08-22T06:15:28.978Z,0.25
2022-08-22T06:16:32.623Z,0.00
2022-08-22T06:17:36.014Z,0.00
2022-08-22T06:18:39.189Z,0.50
2022-08-22T06:19:43.298Z,1.00
2022-08-22T06:20:46.471Z,0.50
2022-08-22T06:21:49.854Z,0.00
2022-08-22T06:22:53.160Z,0.00
2022-08-22T06:23:56.329Z,0.00
2022-08-22T06:24:59.616Z,0.00
2022-08-22T06:26:03.494Z,0.00
2022-08-22T06:27:06.868Z,0.00
2022-08-22T06:28:14.113Z,0.00
2022-08-22T06:29:17.635Z,0.00
2022-08-22T06:30:21.034Z,0.50
2022-08-22T06:31:24.717Z,0.50
2022-08-22T06:32:38.251Z,0.00
2022-08-22T06:33:32.926Z,0.00
2022-08-22T06:34:36.314Z,0.00
2022-08-22T06:35:40.098Z,0.00
2022-08-22T06:36:44.010Z,0.00
2022-08-22T06:37:47.935Z,0.50
2022-08-22T06:38:52.435Z,0.25
2022-08-22T06:39:56.184Z,0.00
2022-08-22T06:40:59.706Z,0.00
2022-08-22T06:42:03.363Z,0.50
2022-08-22T06:43:06.994Z,0.75
2022-08-22T06:44:10.791Z,0.00
2022-08-22T06:45:14.377Z,0.00
2022-08-22T06:46:19.180Z,0.00
2022-08-22T06:47:24.431Z,0.00
2022-08-22T06:48:28.335Z,0.00
2022-08-22T06:49:31.918Z,0.00
2022-08-22T06:50:35.713Z,0.00
2022-08-22T06:51:39.419Z,0.00
2022-08-22T06:52:43.215Z,0.00
2022-08-22T06:53:48.125Z,0.00
2022-08-22T06:54:52.228Z,0.00
2022-08-22T06:55:56.235Z,0.00
2022-08-22T06:56:59.929Z,0.00
2022-08-22T06:58:03.375Z,0.00
2022-08-22T06:59:07.219Z,0.00
2022-08-22T07:00:11.137Z,0.00
2022-08-22T07:01:15.320Z,0.00
2022-08-22T07:02:19.111Z,0.50
2022-08-22T07:03:22.409Z,1.00
2022-08-22T07:04:25.988Z,0.00
2022-08-22T07:05:29.678Z,0.00
2022-08-22T07:06:33.478Z,0.00
2022-08-22T07:07:36.941Z,0.00
2022-08-22T07:08:40.226Z,0.00
2022-08-22T07:09:44.058Z,0.00
2022-08-22T07:10:47.943Z,0.50
2022-08-22T07:11:52.154Z,0.00
2022-08-22T07:12:58.610Z,0.00
2022-08-22T07:14:02.835Z,0.50
2022-08-22T07:15:06.918Z,0.50
2022-08-22T07:16:10.538Z,1.00
2022-08-22T07:17:14.420Z,0.50
2022-08-22T07:18:18.312Z,0.50
2022-08-22T07:19:21.608Z,1.00
2022-08-22T07:20:25.642Z,1.00
2022-08-22T07:21:29.014Z,0.50
2022-08-22T07:22:33.798Z,1.00
2022-08-22T07:23:37.496Z,1.50
2022-08-22T07:24:41.397Z,1.00
2022-08-22T07:25:44.878Z,0.50
2022-08-22T07:26:48.589Z,0.25
2022-08-22T07:27:59.417Z,0.50
2022-08-22T07:29:03.374Z,0.50
2022-08-22T07:30:10.836Z,0.50
2022-08-22T07:31:15.024Z,0.00
2022-08-22T07:32:19.647Z,0.50
2022-08-22T07:33:26.465Z,1.00
2022-08-22T07:34:28.154Z,1.00
2022-08-22T07:35:31.548Z,0.50
2022-08-22T07:36:35.135Z,1.00
2022-08-22T07:37:39.028Z,0.75
2022-08-22T07:38:42.521Z,0.50
2022-08-22T07:39:45.942Z,1.00
2022-08-22T07:40:49.699Z,2.00
2022-08-22T07:41:53.605Z,1.00
2022-08-22T07:42:57.840Z,0.50
2022-08-22T07:44:01.499Z,0.00
2022-08-22T07:45:05.606Z,0.00
2022-08-22T07:46:09.925Z,0.50
2022-08-22T07:47:14.627Z,0.50
2022-08-22T07:48:25.470Z,1.00
2022-08-22T07:49:23.897Z,1.25
2022-08-22T07:50:27.451Z,0.50
2022-08-22T07:51:31.568Z,0.00
2022-08-22T07:52:35.249Z,0.00
2022-08-22T07:53:39.366Z,0.50
2022-08-22T07:54:42.601Z,0.50
2022-08-22T07:55:49.346Z,0.50
2022-08-22T07:56:52.499Z,1.50
2022-08-22T07:57:56.395Z,0.00
2022-08-22T07:59:00.691Z,0.00
2022-08-22T08:00:04.794Z,0.00
2022-08-22T08:01:08.613Z,0.00
2022-08-22T08:02:12.247Z,0.00
2022-08-22T08:03:15.463Z,1.50
2022-08-22T08:04:19.160Z,1.50
2022-08-22T08:05:23.051Z,0.50
2022-08-22T08:06:27.057Z,1.00
2022-08-22T08:07:30.443Z,0.50
2022-08-22T08:08:34.246Z,0.00
2022-08-22T08:09:38.447Z,0.50
2022-08-22T08:10:42.443Z,0.50
2022-08-22T08:11:46.550Z,0.00
2022-08-22T08:12:58.038Z,0.50
2022-08-22T08:13:54.758Z,0.50
2022-08-22T08:14:58.651Z,0.50
2022-08-22T08:16:02.554Z,1.00
2022-08-22T08:17:06.353Z,0.00
2022-08-22T08:18:10.250Z,0.00
2022-08-22T08:19:13.736Z,0.50
2022-08-22T08:20:17.843Z,1.25
2022-08-22T08:21:21.335Z,1.00
2022-08-22T08:22:25.023Z,1.00
2022-08-22T08:23:28.533Z,1.00
2022-08-22T08:24:40.163Z,1.00
2022-08-22T08:25:37.235Z,0.75
2022-08-22T08:26:41.233Z,0.50
2022-08-22T08:27:45.374Z,0.50
2022-08-22T08:28:50.773Z,0.50
2022-08-22T08:29:54.367Z,0.00
2022-08-22T08:30:58.288Z,0.50
2022-08-22T08:32:02.369Z,0.50
2022-08-22T08:33:25.014Z,0.00
2022-08-22T08:34:10.777Z,0.00
2022-08-22T08:35:14.261Z,0.00
2022-08-22T08:36:17.545Z,0.00
2022-08-22T08:37:20.942Z,0.50
2022-08-22T08:38:25.040Z,1.00
2022-08-22T08:39:35.024Z,0.75
2022-08-22T08:40:33.045Z,0.50
2022-08-22T08:41:36.721Z,0.50
2022-08-22T08:42:41.358Z,0.50
2022-08-22T08:43:45.155Z,0.50
2022-08-22T08:44:48.740Z,0.00
2022-08-22T08:45:52.635Z,0.00
2022-08-22T08:46:57.135Z,0.25
2022-08-22T08:48:00.746Z,0.50
2022-08-22T08:50:09.619Z,1.00
2022-08-22T08:51:12.947Z,0.75
2022-08-22T08:52:16.745Z,1.00
2022-08-22T08:53:20.129Z,0.50
2022-08-22T08:54:24.607Z,0.75
2022-08-22T08:55:28.954Z,0.50
2022-08-22T08:56:33.466Z,0.00
2022-08-22T08:57:36.964Z,0.50
2022-08-22T08:58:40.703Z,1.00
2022-08-22T08:59:44.909Z,1.00
2022-08-22T09:00:48.956Z,1.00
2022-08-22T09:01:52.956Z,1.00
2022-08-22T09:02:56.444Z,1.00
2022-08-22T09:04:01.171Z,1.00
2022-08-22T09:05:04.860Z,1.25
2022-08-22T09:06:09.060Z,1.00
2022-08-22T09:07:12.348Z,1.00
2022-08-22T09:08:16.768Z,1.50
2022-08-22T09:09:21.500Z,1.00
2022-08-22T09:10:27.358Z,1.00
2022-08-22T09:11:31.627Z,1.50
2022-08-22T09:12:35.329Z,1.00
2022-08-22T09:13:40.921Z,0.75
2022-08-22T09:14:44.333Z,1.50
2022-08-22T09:15:58.547Z,1.00
2022-08-22T09:16:52.761Z,1.00
2022-08-22T09:17:56.665Z,1.50
2022-08-22T09:19:00.966Z,2.00
2022-08-22T09:20:18.072Z,2.50
2022-08-22T09:21:10.301Z,2.00
2022-08-22T09:22:14.998Z,3.00
2022-08-22T09:23:18.720Z,3.00
2022-08-22T09:24:23.305Z,2.50
2022-08-22T09:25:28.679Z,3.00
2022-08-22T09:26:31.226Z,2.00
2022-08-22T09:27:35.945Z,2.00
2022-08-22T09:28:39.331Z,2.00
2022-08-22T09:29:54.437Z,2.25
2022-08-22T09:30:47.847Z,2.00
2022-08-22T09:31:54.889Z,1.50
2022-08-22T09:32:56.972Z,1.50
2022-08-22T09:34:01.588Z,2.00
2022-08-22T09:35:06.205Z,1.50
2022-08-22T09:36:12.278Z,2.00
2022-08-22T09:37:14.617Z,1.50
2022-08-22T09:38:18.010Z,2.25
2022-08-22T09:39:22.519Z,2.50
2022-08-22T09:40:16.501Z,0.50
2022-08-22T09:41:29.413Z,1.50
2022-08-22T09:42:34.212Z,2.25
2022-08-22T09:43:37.965Z,2.25
2022-08-22T09:44:43.844Z,2.50
2022-08-22T09:45:47.922Z,2.00
2022-08-22T09:46:52.881Z,2.00
2022-08-22T09:47:58.114Z,1.75
2022-08-22T09:49:01.186Z,1.50
2022-08-22T09:50:05.709Z,2.00
2022-08-22T09:51:31.627Z,2.00
2022-08-22T09:52:15.489Z,2.00
2022-08-22T09:53:19.194Z,1.50
2022-08-22T09:54:23.169Z,1.00
2022-08-22T09:55:35.382Z,1.50
2022-08-22T09:56:31.250Z,2.00
2022-08-22T09:57:34.531Z,1.75
2022-08-22T09:58:41.596Z,2.00
2022-08-22T09:59:42.956Z,2.00
2022-08-22T10:00:46.445Z,1.00
2022-08-22T10:01:50.015Z,1.50
2022-08-22T10:02:53.749Z,2.00
2022-08-22T10:03:57.100Z,1.00
2022-08-22T10:05:00.791Z,1.00
2022-08-22T10:06:05.545Z,1.75
2022-08-22T10:07:11.899Z,1.25
2022-08-22T10:08:14.535Z,1.00
2022-08-22T10:09:19.048Z,0.50
2022-08-22T10:10:22.226Z,1.00
2022-08-22T10:11:25.519Z,1.00
2022-08-22T10:12:30.535Z,1.00
2022-08-22T10:13:34.650Z,0.50
2022-08-22T10:14:38.338Z,0.50
2022-08-22T10:15:41.739Z,1.00
2022-08-22T10:16:45.315Z,0.00
2022-08-22T10:17:48.911Z,0.50
2022-08-22T10:18:54.692Z,0.00
2022-08-22T10:19:57.523Z,0.50
2022-08-22T10:21:01.531Z,0.50
2022-08-22T10:22:04.981Z,0.50
2022-08-22T10:23:08.501Z,1.50
2022-08-22T10:24:13.527Z,1.50
2022-08-22T10:25:18.560Z,0.50
2022-08-22T10:26:22.709Z,0.50
2022-08-22T10:27:26.566Z,0.00
2022-08-22T10:28:30.673Z,1.00
2022-08-22T10:29:34.151Z,1.00
2022-08-22T10:30:37.948Z,1.00
2022-08-22T10:31:58.379Z,0.00
2022-08-22T10:32:46.216Z,1.00
2022-08-22T10:33:49.739Z,1.00
2022-08-22T10:34:53.641Z,0.50
2022-08-22T10:35:58.356Z,1.00
2022-08-22T10:37:01.945Z,1.00
2022-08-22T10:38:05.957Z,1.00
2022-08-22T10:39:11.823Z,1.50
2022-08-22T10:40:15.210Z,2.00
2022-08-22T10:41:18.678Z,1.00
2022-08-22T10:42:23.398Z,1.00
2022-08-22T10:43:28.748Z,1.50
2022-08-22T10:44:31.662Z,1.00
2022-08-22T10:45:36.386Z,1.50
2022-08-22T10:46:42.267Z,1.25
2022-08-22T10:47:44.521Z,1.00
2022-08-22T10:48:49.089Z,1.00
2022-08-22T10:49:53.994Z,1.00
2022-08-22T10:50:58.365Z,1.00
2022-08-22T10:52:09.683Z,1.00
2022-08-22T10:53:06.522Z,1.50
2022-08-22T10:54:09.652Z,1.50
2022-08-22T10:55:13.008Z,1.50
2022-08-22T10:56:16.424Z,2.00
2022-08-22T10:57:21.001Z,3.00
2022-08-22T10:58:24.429Z,1.40
2022-08-22T10:59:29.148Z,1.50
2022-08-22T11:00:32.467Z,2.00
2022-08-22T11:01:41.044Z,1.00
2022-08-22T11:02:42.404Z,1.50
2022-08-22T11:03:45.048Z,1.50
2022-08-22T11:04:48.739Z,2.00
2022-08-22T11:05:52.243Z,1.75
2022-08-22T11:06:56.096Z,1.50
2022-08-22T11:07:59.922Z,2.50
2022-08-22T11:09:03.211Z,1.50
2022-08-22T11:10:07.271Z,1.00
2022-08-22T11:11:11.727Z,1.50
2022-08-22T11:12:16.237Z,2.00
2022-08-22T11:13:20.304Z,2.00
2022-08-22T11:14:23.517Z,2.00
2022-08-22T11:15:33.245Z,1.75
2022-08-22T11:16:31.111Z,2.00
2022-08-22T11:17:40.667Z,1.50
2022-08-22T11:18:39.941Z,1.00
2022-08-22T11:19:45.367Z,0.75
2022-08-22T11:20:48.770Z,1.00
2022-08-22T11:21:52.450Z,1.25
2022-08-22T11:22:55.975Z,1.25
2022-08-22T11:24:00.506Z,1.00
2022-08-22T11:25:04.611Z,1.00
2022-08-22T11:26:08.145Z,0.50
2022-08-22T11:27:13.131Z,0.50
2022-08-22T11:28:17.583Z,0.50
2022-08-22T11:29:21.272Z,0.50
2022-08-22T11:30:25.950Z,1.25
2022-08-22T11:31:31.727Z,1.00
2022-08-22T11:32:33.791Z,1.00
2022-08-22T11:33:47.402Z,1.00
2022-08-22T11:34:41.575Z,1.00
2022-08-22T11:35:46.201Z,0.50
2022-08-22T11:36:50.247Z,0.50
2022-08-22T11:37:56.280Z,0.50
2022-08-22T11:38:58.208Z,0.25
2022-08-22T11:40:02.763Z,0.50
2022-08-22T11:41:06.616Z,0.25
2022-08-22T11:42:09.902Z,0.50
2022-08-22T11:43:17.344Z,1.00
2022-08-22T11:44:18.119Z,0.50
2022-08-22T11:45:21.578Z,0.25
2022-08-22T11:46:24.781Z,0.50
2022-08-22T11:47:29.150Z,0.50
2022-08-22T11:48:32.182Z,0.50
2022-08-22T11:49:35.877Z,1.00
2022-08-22T11:50:39.345Z,0.50
2022-08-22T11:51:44.178Z,1.25
2022-08-22T11:52:51.744Z,0.50
2022-08-22T11:53:52.790Z,0.00
2022-08-22T11:54:56.374Z,0.75
2022-08-22T11:55:59.761Z,0.50
2022-08-22T11:57:04.070Z,1.00
2022-08-22T11:58:07.558Z,0.75
2022-08-22T11:59:11.047Z,0.50
2022-08-22T12:00:14.483Z,0.00
2022-08-22T12:01:18.715Z,0.00
2022-08-22T12:02:22.291Z,0.00
2022-08-22T12:03:25.835Z,0.25
2022-08-22T12:04:29.219Z,0.50
2022-08-22T12:05:33.526Z,0.50
2022-08-22T12:06:36.770Z,0.25
2022-08-22T12:07:40.466Z,0.00
2022-08-22T12:08:44.197Z,1.00
2022-08-22T12:09:47.884Z,1.00
2022-08-22T12:10:51.378Z,1.00
2022-08-22T12:11:55.995Z,0.50
2022-08-22T12:13:00.846Z,0.00
2022-08-22T12:14:06.662Z,0.50
2022-08-22T12:15:09.167Z,0.50
2022-08-22T12:16:12.363Z,0.00
2022-08-22T12:17:28.574Z,0.00
2022-08-22T12:18:21.538Z,0.00
2022-08-22T12:19:25.045Z,0.00
2022-08-22T12:20:29.225Z,0.25
2022-08-22T12:21:32.412Z,0.50
2022-08-22T12:22:36.749Z,0.50
2022-08-22T12:23:48.574Z,0.50
2022-08-22T12:24:45.951Z,0.00
2022-08-22T12:25:49.505Z,0.00
2022-08-22T12:26:53.437Z,0.00
2022-08-22T12:27:57.847Z,0.00
2022-08-22T12:29:01.342Z,0.00
2022-08-22T12:30:04.932Z,0.00
2022-08-22T12:31:09.235Z,0.00
2022-08-22T12:32:13.442Z,0.00
2022-08-22T12:33:22.019Z,0.00
2022-08-22T12:34:22.265Z,0.00
2022-08-22T12:35:30.104Z,0.50
2022-08-22T12:36:31.409Z,0.00
2022-08-22T12:37:52.353Z,0.75
2022-08-22T12:38:39.715Z,0.50
2022-08-22T12:39:43.245Z,0.00
2022-08-22T12:40:46.893Z,0.00
2022-08-22T12:41:50.577Z,0.00
2022-08-22T12:42:54.073Z,0.00
2022-08-22T12:43:57.452Z,0.00
2022-08-22T12:45:00.717Z,0.50
2022-08-22T12:46:04.134Z,1.00
2022-08-22T12:47:09.264Z,1.00
2022-08-22T12:48:12.846Z,1.00
2022-08-22T12:49:15.887Z,0.20
2022-08-22T12:50:19.234Z,0.50
2022-08-22T12:51:22.905Z,0.00
2022-08-22T12:52:27.584Z,0.00
2022-08-22T12:53:30.907Z,1.00
2022-08-22T12:54:34.191Z,0.50
2022-08-22T12:55:37.684Z,0.00
2022-08-22T12:56:41.678Z,0.00
2022-08-22T12:57:46.099Z,0.00
2022-08-22T12:58:51.391Z,0.00
2022-08-22T12:59:54.704Z,0.00
2022-08-22T13:00:59.068Z,0.00
2022-08-22T13:02:02.932Z,0.00
2022-08-22T13:03:06.504Z,0.00
2022-08-22T13:04:09.791Z,0.00
2022-08-22T13:05:19.820Z,0.00
2022-08-22T13:06:18.710Z,0.00
2022-08-22T13:07:23.270Z,0.00
2022-08-22T13:08:26.500Z,0.00
2022-08-22T13:09:30.580Z,0.00
2022-08-22T13:10:34.100Z,0.00
2022-08-22T13:11:37.792Z,0.00
2022-08-22T13:12:44.311Z,0.00
2022-08-22T13:13:56.544Z,0.00
2022-08-22T13:14:49.907Z,0.25
2022-08-22T13:15:53.794Z,0.00
2022-08-22T13:16:57.290Z,0.00
2022-08-22T13:18:18.995Z,0.00
2022-08-22T13:19:07.807Z,0.50
2022-08-22T13:20:09.194Z,0.50
2022-08-22T13:21:15.161Z,0.00
2022-08-22T13:22:16.883Z,0.25
2022-08-22T13:23:21.192Z,0.00
2022-08-22T13:24:38.571Z,0.00
2022-08-22T13:25:28.993Z,0.50
2022-08-22T13:26:34.395Z,1.00
2022-08-22T13:27:37.099Z,0.50
2022-08-22T13:28:40.578Z,0.50
2022-08-22T13:29:43.761Z,0.00
2022-08-22T13:30:48.270Z,0.50
2022-08-22T13:31:51.254Z,1.50
2022-08-22T13:32:54.512Z,1.00
2022-08-22T13:33:58.097Z,0.50
2022-08-22T13:35:02.543Z,0.00
2022-08-22T13:36:05.786Z,0.00
2022-08-22T13:37:10.145Z,0.00
2022-08-22T13:38:13.824Z,0.25
2022-08-22T13:39:17.319Z,0.00
2022-08-22T13:40:21.555Z,0.00
2022-08-22T13:41:25.013Z,0.00
2022-08-22T13:42:30.324Z,0.00
2022-08-22T13:43:32.806Z,0.00
2022-08-22T13:44:36.295Z,0.00
2022-08-22T13:45:39.786Z,1.00
2022-08-22T13:47:10.913Z,0.00
2022-08-22T13:47:49.020Z,0.00
2022-08-22T13:48:53.214Z,0.50
2022-08-22T13:49:57.123Z,0.00
2022-08-22T13:51:42.877Z,1.00
2022-08-22T13:52:52.211Z,2.00
2022-08-22T13:54:01.065Z,0.50
2022-08-22T13:54:55.403Z,0.25
2022-08-22T13:55:58.902Z,0.60
2022-08-22T13:57:03.404Z,0.50
2022-08-22T13:58:11.400Z,0.00
2022-08-22T13:59:12.237Z,0.00
2022-08-22T14:00:28.844Z,0.00
2022-08-22T14:01:20.095Z,0.00
2022-08-22T14:02:24.610Z,0.00